Terminal Aerodrome Forecast
Issued by NWS Austin/San Antonio, TX

Home | Current Version | Previous Version | Text Only | Print | Product List | Glossary On
Versions: 1 2 3 4 5 6 7 8 9 10 11 12 13 14 15 16 17
000
FTUS44 KEWX 300500
TAFSAT
TAF
KSAT 300524Z 3006/3112 12009KT P6SM FEW080 BKN250
     FM301400 18007KT P6SM SCT080 BKN200
     FM301700 17010G20KT P6SM SCT200
     FM310200 17015KT P6SM SCT150
     FM310900 18007KT P6SM BKN015=

USA.gov is the U.S. government's official web portal to all federal, state and local government web resources and services.